Time;durP1;ratioP1;P1;durP2;ratioP2;P2;SDS_P1;SDS_P2;PMS_P1;PMS_P2;Temp;Humidity;BMP_temperature;BMP_pressure;BME280_temperature;BME280_humidity;BME280_pressure;Samples;Min_cycle;Max_cycle;Signal;HPM_P1;HPM_P2
2022/12/17 13:08:08;;;;;;;8.57;6.33;;;;;;;;;;5094471;28;20039;-67
2022/12/17 13:10:35;;;;;;;9.85;6.68;;;;;;;;;;5094840;28;20504;-67
2022/12/17 13:13:11;;;;;;;9.38;6.72;;;;;;;;;;5095472;28;20028;-67
2022/12/17 13:15:40;;;;;;;9.30;6.97;;;;;;;;;;5094263;28;20441;-67
2022/12/17 13:18:27;;;;;;;11.52;7.05;;;;;;;;;;5095069;28;20036;-67
2022/12/17 13:20:59;;;;;;;8.35;6.60;;;;;;;;;;5090373;28;20036;-67
2022/12/17 13:23:43;;;;;;;7.25;5.97;;;;;;;;;;5094582;28;20036;-67
2022/12/17 13:26:29;;;;;;;6.90;5.75;;;;;;;;;;5094681;28;20059;-67
2022/12/17 13:28:56;;;;;;;7.78;5.63;;;;;;;;;;5095147;28;20039;-67
2022/12/17 13:31:25;;;;;;;7.97;5.45;;;;;;;;;;5094644;28;20040;-67
2022/12/17 13:33:59;;;;;;;8.63;5.78;;;;;;;;;;5094735;28;20058;-67
2022/12/17 13:36:30;;;;;;;9.50;5.68;;;;;;;;;;5094863;28;20044;-67
2022/12/17 13:38:56;;;;;;;7.60;6.03;;;;;;;;;;5094491;28;20039;-67
2022/12/17 13:41:27;;;;;;;9.35;6.18;;;;;;;;;;5094265;28;20035;-67
2022/12/17 13:43:57;;;;;;;6.75;5.82;;;;;;;;;;5094336;28;20038;-67
2022/12/17 13:46:24;;;;;;;8.93;5.43;;;;;;;;;;5094577;28;20043;-67
2022/12/17 13:48:53;;;;;;;9.70;6.53;;;;;;;;;;5094713;28;20281;-67
2022/12/17 13:51:20;;;;;;;9.43;6.25;;;;;;;;;;5094196;28;20499;-67
2022/12/17 13:53:57;;;;;;;10.25;8.00;;;;;;;;;;5094023;28;20039;-67
2022/12/17 13:56:24;;;;;;;8.23;6.47;;;;;;;;;;5094795;28;20028;-67
2022/12/17 13:58:51;;;;;;;8.95;6.50;;;;;;;;;;5096585;28;20032;-67
2022/12/17 14:01:18;;;;;;;8.60;6.22;;;;;;;;;;5097926;28;20032;-67
2022/12/17 14:03:49;;;;;;;9.98;7.13;;;;;;;;;;5098465;28;20058;-67
2022/12/17 14:06:15;;;;;;;12.65;9.48;;;;;;;;;;5097793;28;20044;-67
2022/12/17 14:08:42;;;;;;;9.68;7.15;;;;;;;;;;5097567;28;20036;-67
2022/12/17 14:13:53;;;;;;;13.02;8.13;;;;;;;;;;5097388;28;20039;-66
2022/12/17 14:16:22;;;;;;;10.35;8.52;;;;;;;;;;5098390;28;20031;-67
2022/12/17 14:18:55;;;;;;;10.57;7.97;;;;;;;;;;5097812;28;20065;-67
2022/12/17 14:21:22;;;;;;;8.60;6.53;;;;;;;;;;5097491;28;20028;-67
2022/12/17 14:23:49;;;;;;;8.48;6.15;;;;;;;;;;5097644;28;20040;-67
2022/12/17 14:26:16;;;;;;;9.50;6.40;;;;;;;;;;5097734;28;20073;-67
2022/12/17 14:28:50;;;;;;;9.15;6.63;;;;;;;;;;5097487;28;20081;-67
2022/12/17 14:31:20;;;;;;;8.65;6.53;;;;;;;;;;5097551;28;20126;-67
2022/12/17 14:33:47;;;;;;;11.93;7.88;;;;;;;;;;5097895;28;20047;-67
2022/12/17 14:36:16;;;;;;;13.05;7.20;;;;;;;;;;5097485;28;20089;-67
2022/12/17 14:38:51;;;;;;;10.50;7.28;;;;;;;;;;5097224;28;20032;-67
2022/12/17 14:44:02;;;;;;;7.82;5.75;;;;;;;;;;5096800;28;20039;-67
2022/12/17 14:46:29;;;;;;;10.05;6.07;;;;;;;;;;5097577;28;20085;-67
2022/12/17 14:48:59;;;;;;;8.25;6.55;;;;;;;;;;5097114;28;20122;-67
2022/12/17 14:51:39;;;;;;;10.80;7.75;;;;;;;;;;5097673;28;20032;-67
2022/12/17 14:54:14;;;;;;;9.75;6.32;;;;;;;;;;5096850;28;20047;-67
2022/12/17 14:56:41;;;;;;;38.22;17.88;;;;;;;;;;5097068;28;20032;-67
2022/12/17 14:59:29;;;;;;;45.08;18.95;;;;;;;;;;5097118;28;20047;-67
2022/12/17 15:01:55;;;;;;;44.10;18.50;;;;;;;;;;5097331;28;20032;-67
2022/12/17 15:04:22;;;;;;;71.47;29.67;;;;;;;;;;5096915;28;20036;-67
2022/12/17 15:06:50;;;;;;;55.90;23.08;;;;;;;;;;5096923;28;20454;-67
2022/12/17 15:09:16;;;;;;;44.15;20.80;;;;;;;;;;5096060;28;20109;-67
2022/12/17 15:11:42;;;;;;;54.75;25.67;;;;;;;;;;5097175;28;20039;-67
2022/12/17 15:14:08;;;;;;;48.05;21.95;;;;;;;;;;5096703;28;20036;-67
2022/12/17 15:16:34;;;;;;;106.65;42.15;;;;;;;;;;5096419;28;20036;-67
2022/12/17 15:19:00;;;;;;;57.05;24.58;;;;;;;;;;5096593;28;20040;-67
2022/12/17 15:21:26;;;;;;;34.58;15.95;;;;;;;;;;5096693;28;20031;-67
2022/12/17 15:23:52;;;;;;;16.10;9.07;;;;;;;;;;5095008;28;20115;-67
2022/12/17 15:26:20;;;;;;;9.27;5.85;;;;;;;;;;5094929;28;20206;-67
2022/12/17 15:28:46;;;;;;;7.72;6.05;;;;;;;;;;5095606;28;20517;-67
2022/12/17 15:31:13;;;;;;;14.05;7.88;;;;;;;;;;5096027;28;20032;-67
2022/12/17 15:33:40;;;;;;;14.75;7.93;;;;;;;;;;5096674;28;20036;-67
2022/12/17 15:36:06;;;;;;;18.88;8.65;;;;;;;;;;5091244;28;20040;-67
2022/12/17 15:38:33;;;;;;;12.45;6.97;;;;;;;;;;5095800;28;20040;-67
2022/12/17 15:40:59;;;;;;;8.15;5.38;;;;;;;;;;5095727;28;20036;-67
2022/12/17 15:43:25;;;;;;;7.75;5.38;;;;;;;;;;5095525;28;20039;-67
2022/12/17 15:45:52;;;;;;;10.80;6.43;;;;;;;;;;5090296;28;20044;-68
2022/12/17 15:48:19;;;;;;;10.52;6.68;;;;;;;;;;5083307;28;20037;-70
2022/12/17 15:50:46;;;;;;;16.65;9.10;;;;;;;;;;5076185;28;20047;-70
2022/12/17 15:53:13;;;;;;;10.35;6.50;;;;;;;;;;5090275;28;20040;-69
2022/12/17 15:55:39;;;;;;;35.22;19.50;;;;;;;;;;5095639;28;20039;-69
2022/12/17 15:58:06;;;;;;;15.85;10.15;;;;;;;;;;5090057;28;20040;-67
2022/12/17 16:00:32;;;;;;;15.30;10.10;;;;;;;;;;5084737;28;20028;-66
2022/12/17 16:02:58;;;;;;;16.38;10.02;;;;;;;;;;5087404;28;20039;-67
2022/12/17 16:05:24;;;;;;;52.05;24.42;;;;;;;;;;5078989;28;20093;-67
2022/12/17 16:07:51;;;;;;;26.65;14.90;;;;;;;;;;5090649;28;20038;-66
2022/12/17 16:10:17;;;;;;;25.85;14.68;;;;;;;;;;5088223;28;20086;-66
2022/12/17 16:12:44;;;;;;;20.27;12.63;;;;;;;;;;5085570;28;20041;-67
2022/12/17 16:15:11;;;;;;;14.30;9.20;;;;;;;;;;5086834;28;20359;-67
2022/12/17 16:17:37;;;;;;;22.20;12.15;;;;;;;;;;5083334;28;20070;-67
2022/12/17 16:20:06;;;;;;;32.28;19.17;;;;;;;;;;5082919;28;20039;-67
2022/12/17 16:22:32;;;;;;;24.20;14.40;;;;;;;;;;5094430;28;20046;-67
2022/12/17 16:24:59;;;;;;;18.05;12.07;;;;;;;;;;5081816;28;20035;-67
2022/12/17 16:27:25;;;;;;;15.73;10.38;;;;;;;;;;5082563;28;20037;-67
2022/12/17 16:29:51;;;;;;;11.45;7.55;;;;;;;;;;5094478;28;20044;-66
2022/12/17 16:32:17;;;;;;;10.15;6.82;;;;;;;;;;5095604;28;20062;-67
2022/12/17 16:34:44;;;;;;;11.95;8.75;;;;;;;;;;5094607;28;20043;-67
2022/12/17 16:37:10;;;;;;;11.80;9.75;;;;;;;;;;5081773;28;20071;-66
2022/12/17 16:39:36;;;;;;;16.20;11.57;;;;;;;;;;5091551;28;20117;-66
2022/12/17 16:42:02;;;;;;;16.77;10.88;;;;;;;;;;5091692;28;20028;-67
2022/12/17 16:44:29;;;;;;;13.75;10.27;;;;;;;;;;5093886;28;20123;-67
2022/12/17 16:46:55;;;;;;;17.85;11.57;;;;;;;;;;5092914;28;20071;-67
2022/12/17 16:49:22;;;;;;;16.58;10.48;;;;;;;;;;5081089;28;20040;-67
2022/12/17 16:51:50;;;;;;;14.18;9.20;;;;;;;;;;5093554;28;20047;-67
2022/12/17 16:54:18;;;;;;;13.32;9.05;;;;;;;;;;5092248;28;20424;-67
2022/12/17 16:56:45;;;;;;;12.95;9.32;;;;;;;;;;5094272;28;20028;-67
2022/12/17 16:59:11;;;;;;;9.93;8.43;;;;;;;;;;5093833;28;20501;-67
2022/12/17 17:01:38;;;;;;;12.10;8.13;;;;;;;;;;5092632;28;20035;-67
2022/12/17 17:04:06;;;;;;;8.30;6.63;;;;;;;;;;5088428;28;20538;-67
2022/12/17 17:06:32;;;;;;;8.60;6.32;;;;;;;;;;5076318;28;20031;-67
2022/12/17 17:08:58;;;;;;;11.43;7.38;;;;;;;;;;5073229;28;20132;-67
2022/12/17 17:11:25;;;;;;;11.90;7.03;;;;;;;;;;5073078;28;20048;-67
2022/12/17 17:13:53;;;;;;;12.63;9.10;;;;;;;;;;5073737;28;20066;-67
2022/12/17 17:16:20;;;;;;;20.20;12.55;;;;;;;;;;5073283;28;20028;-67
2022/12/17 17:18:46;;;;;;;13.10;8.80;;;;;;;;;;5072773;28;20036;-67
2022/12/17 17:21:22;;;;;;;19.23;12.27;;;;;;;;;;5073728;28;20069;-67
2022/12/17 17:24:14;;;;;;;36.47;24.33;;;;;;;;;;5072643;28;20118;-67
2022/12/17 17:26:41;;;;;;;25.10;18.25;;;;;;;;;;5071416;28;20166;-67
2022/12/17 17:29:07;;;;;;;18.65;13.43;;;;;;;;;;5073302;28;20036;-69
2022/12/17 17:31:34;;;;;;;20.38;13.73;;;;;;;;;;5087051;28;20044;-69
2022/12/17 17:34:07;;;;;;;12.40;8.70;;;;;;;;;;5096454;28;20039;-69
2022/12/17 17:36:33;;;;;;;14.05;9.13;;;;;;;;;;5097527;28;20047;-70
2022/12/17 17:39:01;;;;;;;14.50;9.50;;;;;;;;;;5097993;28;20110;-69
2022/12/17 17:41:28;;;;;;;13.55;9.55;;;;;;;;;;5096728;28;20081;-69
2022/12/17 17:43:58;;;;;;;16.67;9.88;;;;;;;;;;5092119;28;20428;-69
2022/12/17 17:46:25;;;;;;;11.70;7.65;;;;;;;;;;5088955;28;20040;-69
2022/12/17 17:48:52;;;;;;;12.45;8.52;;;;;;;;;;5095900;28;20134;-70
2022/12/17 17:51:20;;;;;;;18.15;9.73;;;;;;;;;;5097158;28;20120;-67
2022/12/17 17:53:47;;;;;;;15.55;12.05;;;;;;;;;;5097083;28;20065;-67
2022/12/17 17:56:15;;;;;;;12.23;10.30;;;;;;;;;;5097617;28;20047;-67
2022/12/17 17:58:45;;;;;;;11.07;8.15;;;;;;;;;;5096979;28;20062;-67
2022/12/17 18:01:12;;;;;;;11.32;8.68;;;;;;;;;;5096963;28;20582;-67
2022/12/17 18:03:38;;;;;;;10.60;7.88;;;;;;;;;;5095673;28;20364;-67
2022/12/17 18:06:06;;;;;;;13.48;9.90;;;;;;;;;;5093082;28;20059;-67
2022/12/17 18:08:32;;;;;;;37.05;23.75;;;;;;;;;;5095113;28;20505;-67
2022/12/17 18:10:59;;;;;;;30.20;19.52;;;;;;;;;;5092145;28;20040;-67
2022/12/17 18:16:10;;;;;;;22.10;14.25;;;;;;;;;;5096882;28;20039;-67
2022/12/17 18:18:37;;;;;;;14.80;11.27;;;;;;;;;;5095887;28;20119;-67
2022/12/17 18:21:05;;;;;;;16.52;11.80;;;;;;;;;;5095984;28;20378;-67
2022/12/17 18:23:31;;;;;;;15.57;12.35;;;;;;;;;;5097088;28;20039;-67
2022/12/17 18:26:03;;;;;;;14.50;11.38;;;;;;;;;;5084866;28;20387;-67
2022/12/17 18:28:29;;;;;;;16.20;11.55;;;;;;;;;;5093350;28;20044;-69
2022/12/17 18:30:55;;;;;;;12.70;9.38;;;;;;;;;;5095197;28;20067;-66
2022/12/17 18:33:21;;;;;;;15.52;9.63;;;;;;;;;;5096780;28;20106;-66
2022/12/17 18:35:47;;;;;;;15.68;8.75;;;;;;;;;;5096670;28;20049;-66
2022/12/17 18:38:14;;;;;;;14.55;9.80;;;;;;;;;;5094723;28;20036;-66
2022/12/17 18:40:40;;;;;;;14.45;10.65;;;;;;;;;;5094508;28;20386;-66
2022/12/17 18:43:23;;;;;;;16.70;10.52;;;;;;;;;;5096095;28;20028;-65
2022/12/17 18:45:50;;;;;;;15.38;10.65;;;;;;;;;;5092724;28;20044;-66
2022/12/17 18:48:16;;;;;;;17.27;12.85;;;;;;;;;;5096036;28;20036;-66
2022/12/17 18:50:42;;;;;;;23.60;14.40;;;;;;;;;;5095356;28;20085;-66
2022/12/17 18:53:08;;;;;;;19.77;13.77;;;;;;;;;;5091653;28;20491;-67
2022/12/17 18:55:39;;;;;;;19.98;16.80;;;;;;;;;;5088419;28;20340;-68
2022/12/17 18:58:05;;;;;;;33.10;22.25;;;;;;;;;;5083057;28;20114;-69
2022/12/17 19:00:32;;;;;;;35.33;22.73;;;;;;;;;;5094999;28;20089;-69
2022/12/17 19:02:58;;;;;;;26.38;15.90;;;;;;;;;;5095045;28;20067;-69
2022/12/17 19:05:24;;;;;;;20.63;14.88;;;;;;;;;;5096677;28;20036;-69
2022/12/17 19:07:50;;;;;;;25.27;16.40;;;;;;;;;;5095967;28;20032;-69
2022/12/17 19:10:16;;;;;;;15.80;11.38;;;;;;;;;;5081218;28;20048;-69
2022/12/17 19:12:42;;;;;;;14.15;11.45;;;;;;;;;;5092381;28;20035;-69
2022/12/17 19:15:09;;;;;;;13.40;9.20;;;;;;;;;;5094532;28;20042;-69
2022/12/17 19:17:35;;;;;;;9.88;7.82;;;;;;;;;;5094433;28;20037;-69
2022/12/17 19:20:01;;;;;;;8.15;5.90;;;;;;;;;;5095504;28;20044;-69
2022/12/17 19:22:27;;;;;;;42.63;24.83;;;;;;;;;;5095711;28;20042;-69
2022/12/17 19:24:54;;;;;;;32.15;19.95;;;;;;;;;;5094925;28;20062;-69
2022/12/17 19:27:20;;;;;;;12.20;8.75;;;;;;;;;;5095477;28;20105;-68
2022/12/17 19:29:46;;;;;;;17.48;12.38;;;;;;;;;;5095196;28;20032;-68
2022/12/17 19:32:12;;;;;;;11.20;8.48;;;;;;;;;;5094609;28;20391;-69
2022/12/17 19:34:38;;;;;;;9.80;7.47;;;;;;;;;;5092665;28;20028;-69
2022/12/17 19:37:04;;;;;;;15.13;8.38;;;;;;;;;;5094920;28;20044;-69
2022/12/17 19:39:30;;;;;;;15.77;10.95;;;;;;;;;;5094564;28;20024;-68
2022/12/17 19:41:56;;;;;;;13.18;10.68;;;;;;;;;;5095318;28;20047;-68
2022/12/17 19:44:23;;;;;;;13.63;8.35;;;;;;;;;;5095840;28;20031;-68
2022/12/17 19:46:50;;;;;;;11.98;8.63;;;;;;;;;;5088433;28;20102;-69
2022/12/17 19:49:16;;;;;;;15.85;8.10;;;;;;;;;;5074251;28;20090;-69
2022/12/17 19:51:43;;;;;;;9.60;6.85;;;;;;;;;;5074943;28;20040;-68
2022/12/17 19:54:11;;;;;;;42.00;23.23;;;;;;;;;;5073942;28;20035;-68
2022/12/17 19:56:37;;;;;;;10.73;8.38;;;;;;;;;;5073862;28;20028;-68
2022/12/17 19:59:05;;;;;;;12.63;8.23;;;;;;;;;;5074345;28;20123;-68
2022/12/17 20:01:32;;;;;;;15.73;11.77;;;;;;;;;;5074540;28;20109;-68
2022/12/17 20:03:59;;;;;;;10.00;8.02;;;;;;;;;;5074666;28;20024;-69
2022/12/17 20:06:26;;;;;;;9.77;7.22;;;;;;;;;;5075762;28;20032;-69
2022/12/17 20:08:53;;;;;;;14.65;9.35;;;;;;;;;;5085968;28;20038;-69
2022/12/17 20:11:32;;;;;;;39.25;24.27;;;;;;;;;;5083176;28;20059;-69
2022/12/17 20:14:02;;;;;;;23.45;15.38;;;;;;;;;;5093434;28;20043;-69
2022/12/17 20:16:29;;;;;;;16.65;11.73;;;;;;;;;;5093720;28;20031;-69
2022/12/17 20:18:55;;;;;;;33.13;19.77;;;;;;;;;;5093965;28;20127;-69
2022/12/17 20:21:21;;;;;;;30.45;19.70;;;;;;;;;;5093574;28;20032;-69
2022/12/17 20:23:49;;;;;;;28.42;17.50;;;;;;;;;;5093972;28;20048;-69
2022/12/17 20:26:16;;;;;;;18.30;13.35;;;;;;;;;;5093013;28;20131;-70
2022/12/17 20:28:42;;;;;;;17.85;12.05;;;;;;;;;;5094267;28;20032;-70
2022/12/17 20:31:09;;;;;;;17.45;11.70;;;;;;;;;;5093709;28;20181;-69
2022/12/17 20:33:35;;;;;;;19.83;12.52;;;;;;;;;;5093759;28;20047;-68
2022/12/17 20:36:05;;;;;;;14.35;10.60;;;;;;;;;;5094353;28;20042;-69
2022/12/17 20:38:31;;;;;;;11.30;8.17;;;;;;;;;;5091681;28;20039;-70
2022/12/17 20:40:58;;;;;;;16.30;9.63;;;;;;;;;;5090540;28;20365;-70
2022/12/17 20:43:24;;;;;;;16.30;9.30;;;;;;;;;;5094143;28;20114;-69
2022/12/17 20:45:54;;;;;;;16.35;12.23;;;;;;;;;;5093916;28;20163;-69
2022/12/17 20:48:20;;;;;;;27.17;17.80;;;;;;;;;;5093221;28;20044;-69
2022/12/17 20:50:47;;;;;;;13.80;11.15;;;;;;;;;;5094120;28;20040;-69
2022/12/17 20:53:13;;;;;;;15.00;10.30;;;;;;;;;;5093735;28;20035;-69
2022/12/17 20:55:39;;;;;;;14.40;10.63;;;;;;;;;;5084466;28;20043;-69
2022/12/17 20:58:05;;;;;;;13.30;10.60;;;;;;;;;;5083576;28;20092;-69
2022/12/17 21:00:32;;;;;;;8.93;6.75;;;;;;;;;;5073755;28;20036;-69
2022/12/17 21:02:58;;;;;;;10.27;9.07;;;;;;;;;;5073711;28;20040;-69
2022/12/17 21:05:25;;;;;;;10.57;6.78;;;;;;;;;;5073188;28;20032;-70
2022/12/17 21:07:51;;;;;;;8.05;6.60;;;;;;;;;;5074261;28;20048;-70
2022/12/17 21:10:18;;;;;;;28.15;18.63;;;;;;;;;;5089812;28;20043;-70
2022/12/17 21:15:28;;;;;;;11.15;8.93;;;;;;;;;;5097892;28;20039;-67
2022/12/17 21:17:55;;;;;;;18.75;14.75;;;;;;;;;;5097956;28;20105;-67
2022/12/17 21:20:21;;;;;;;15.02;11.05;;;;;;;;;;5097491;28;20044;-67
2022/12/17 21:22:47;;;;;;;13.38;8.98;;;;;;;;;;5097586;28;20067;-67
2022/12/17 21:25:13;;;;;;;9.27;7.60;;;;;;;;;;5097369;28;20063;-67
2022/12/17 21:27:43;;;;;;;20.75;15.27;;;;;;;;;;5091003;28;20474;-67
2022/12/17 21:30:10;;;;;;;33.60;22.40;;;;;;;;;;5077449;28;20048;-67
2022/12/17 21:32:36;;;;;;;17.27;12.30;;;;;;;;;;5076002;28;20348;-67
2022/12/17 21:35:02;;;;;;;26.15;19.23;;;;;;;;;;5080288;28;20043;-67
2022/12/17 21:37:28;;;;;;;22.05;15.10;;;;;;;;;;5097794;28;20470;-67
2022/12/17 21:39:54;;;;;;;23.27;14.85;;;;;;;;;;5097005;28;20039;-67
2022/12/17 21:45:05;;;;;;;21.83;14.32;;;;;;;;;;5097803;28;20086;-67
2022/12/17 21:47:31;;;;;;;23.13;14.57;;;;;;;;;;5097551;28;20036;-67
2022/12/17 21:49:58;;;;;;;28.83;16.25;;;;;;;;;;5096972;28;20039;-68
2022/12/17 21:52:25;;;;;;;20.08;13.00;;;;;;;;;;5097537;28;20478;-68
2022/12/17 21:54:51;;;;;;;22.10;15.32;;;;;;;;;;5094068;28;20455;-67
2022/12/17 21:57:17;;;;;;;69.70;45.90;;;;;;;;;;5097098;28;20062;-68
2022/12/17 21:59:43;;;;;;;18.85;12.20;;;;;;;;;;5097448;28;20035;-67
2022/12/17 22:02:10;;;;;;;17.08;10.60;;;;;;;;;;5096977;28;20036;-67
2022/12/17 22:04:36;;;;;;;11.15;8.55;;;;;;;;;;5097250;28;20085;-67
2022/12/17 22:07:02;;;;;;;15.65;9.25;;;;;;;;;;5097075;28;20386;-67
2022/12/17 22:09:29;;;;;;;14.48;8.65;;;;;;;;;;5095968;28;20032;-67
2022/12/17 22:14:01;;;;;;;16.90;10.18;;;;;;;;;;5097470;28;20061;-67
2022/12/17 22:14:43;;;;;;;14.57;10.82;;;;;;;;;;5096407;28;20131;-67
2022/12/17 22:17:10;;;;;;;16.80;11.75;;;;;;;;;;5097274;28;20036;-67
2022/12/17 22:19:36;;;;;;;18.27;10.63;;;;;;;;;;5096066;28;20071;-67
2022/12/17 22:22:02;;;;;;;13.77;9.70;;;;;;;;;;5094311;28;20085;-67
2022/12/17 22:24:28;;;;;;;11.05;8.18;;;;;;;;;;5097560;28;20059;-67
2022/12/17 22:26:58;;;;;;;13.48;8.80;;;;;;;;;;5097132;28;20490;-67
2022/12/17 22:34:58;;;;;;;19.02;13.05;;;;;;;;;;5096693;28;20085;-67
2022/12/17 22:37:24;;;;;;;19.38;13.18;;;;;;;;;;5095739;28;20028;-67
2022/12/17 22:39:51;;;;;;;28.77;17.17;;;;;;;;;;5097119;28;20040;-67
2022/12/17 22:45:06;;;;;;;24.20;16.00;;;;;;;;;;5096619;28;20391;-67
2022/12/17 22:47:32;;;;;;;15.75;10.65;;;;;;;;;;5097058;28;20035;-68
2022/12/17 22:49:58;;;;;;;14.02;8.95;;;;;;;;;;5096603;28;20525;-67
2022/12/17 22:52:24;;;;;;;18.20;9.65;;;;;;;;;;5096954;28;20044;-68
2022/12/17 22:54:50;;;;;;;16.70;10.27;;;;;;;;;;5096859;28;20036;-67
2022/12/17 22:57:16;;;;;;;12.88;8.70;;;;;;;;;;5096846;28;20040;-67
2022/12/17 22:59:43;;;;;;;10.70;7.55;;;;;;;;;;5093619;28;20071;-67
2022/12/17 23:02:10;;;;;;;10.63;7.60;;;;;;;;;;5096079;28;20044;-67
2022/12/17 23:04:36;;;;;;;11.32;7.60;;;;;;;;;;5095267;28;20042;-67
2022/12/17 23:07:02;;;;;;;11.05;8.50;;;;;;;;;;5096188;28;20123;-67
2022/12/17 23:09:28;;;;;;;12.68;8.32;;;;;;;;;;5095536;28;20087;-67
2022/12/17 23:11:55;;;;;;;14.13;8.35;;;;;;;;;;5096484;28;20035;-67
2022/12/17 23:14:21;;;;;;;14.55;9.38;;;;;;;;;;5096135;28;20034;-68
2022/12/17 23:16:47;;;;;;;11.45;7.40;;;;;;;;;;5096139;28;20471;-67
2022/12/17 23:19:14;;;;;;;11.48;8.55;;;;;;;;;;5096379;28;20052;-68
2022/12/17 23:21:40;;;;;;;11.57;7.97;;;;;;;;;;5096397;28;20044;-68
2022/12/17 23:24:06;;;;;;;14.82;10.27;;;;;;;;;;5095885;28;20039;-67
2022/12/17 23:26:33;;;;;;;18.63;10.48;;;;;;;;;;5096675;28;20075;-68
2022/12/17 23:29:01;;;;;;;15.57;9.45;;;;;;;;;;5096871;28;20061;-67
2022/12/17 23:31:28;;;;;;;17.00;11.13;;;;;;;;;;5096115;28;20040;-67
2022/12/17 23:33:54;;;;;;;29.15;18.95;;;;;;;;;;5096146;28;20410;-67
2022/12/17 23:36:22;;;;;;;30.48;15.90;;;;;;;;;;5096032;28;20382;-68
2022/12/17 23:38:48;;;;;;;20.60;12.73;;;;;;;;;;5095845;28;20040;-67
2022/12/17 23:41:19;;;;;;;14.27;10.07;;;;;;;;;;5095989;28;20040;-67
2022/12/17 23:43:46;;;;;;;13.05;9.60;;;;;;;;;;5096569;28;20047;-67
2022/12/17 23:46:12;;;;;;;21.17;11.73;;;;;;;;;;5096176;28;20035;-67
2022/12/17 23:48:40;;;;;;;56.20;27.88;;;;;;;;;;5096337;28;20119;-68
2022/12/17 23:51:07;;;;;;;45.85;22.90;;;;;;;;;;5096086;28;20050;-67
2022/12/17 23:53:34;;;;;;;19.75;12.00;;;;;;;;;;5095959;28;20501;-67
2022/12/17 23:56:05;;;;;;;18.33;12.40;;;;;;;;;;5096002;28;20085;-67
2022/12/17 23:58:32;;;;;;;23.38;14.15;;;;;;;;;;5095974;28;20044;-68
